sensor_id;sensor_type;location;lat;lon;timestamp;P1;durP1;ratioP1;P2;durP2;ratioP2
32329;SDS011;18807;52.434;13.238;2023-02-13T00:05:31;37.95;;;14.85;;
32329;SDS011;18807;52.434;13.238;2023-02-13T00:13:06;34.47;;;12.77;;
32329;SDS011;18807;52.434;13.238;2023-02-13T00:20:40;23.17;;;10.32;;
32329;SDS011;18807;52.434;13.238;2023-02-13T00:28:15;25.23;;;10.17;;
32329;SDS011;18807;52.434;13.238;2023-02-13T00:35:49;22.02;;;8.45;;
32329;SDS011;18807;52.434;13.238;2023-02-13T00:43:25;12.18;;;4.65;;
32329;SDS011;18807;52.434;13.238;2023-02-13T00:50:59;11.25;;;4.00;;
32329;SDS011;18807;52.434;13.238;2023-02-13T00:58:35;9.40;;;3.47;;
32329;SDS011;18807;52.434;13.238;2023-02-13T01:06:10;9.88;;;3.55;;
32329;SDS011;18807;52.434;13.238;2023-02-13T01:21:21;5.90;;;2.80;;
32329;SDS011;18807;52.434;13.238;2023-02-13T01:28:57;6.18;;;2.53;;
32329;SDS011;18807;52.434;13.238;2023-02-13T01:36:30;7.95;;;1.95;;
32329;SDS011;18807;52.434;13.238;2023-02-13T01:52:13;5.05;;;2.80;;
32329;SDS011;18807;52.434;13.238;2023-02-13T01:59:51;4.80;;;2.08;;
32329;SDS011;18807;52.434;13.238;2023-02-13T02:07:33;5.78;;;2.15;;
32329;SDS011;18807;52.434;13.238;2023-02-13T02:15:10;8.18;;;2.45;;
32329;SDS011;18807;52.434;13.238;2023-02-13T02:22:58;5.70;;;2.75;;
32329;SDS011;18807;52.434;13.238;2023-02-13T02:31:11;9.00;;;4.07;;
32329;SDS011;18807;52.434;13.238;2023-02-13T02:39:07;8.85;;;3.72;;
32329;SDS011;18807;52.434;13.238;2023-02-13T02:46:52;11.77;;;4.50;;
32329;SDS011;18807;52.434;13.238;2023-02-13T02:54:51;9.45;;;4.68;;
32329;SDS011;18807;52.434;13.238;2023-02-13T03:02:41;12.15;;;5.38;;
32329;SDS011;18807;52.434;13.238;2023-02-13T03:10:34;12.38;;;5.43;;
32329;SDS011;18807;52.434;13.238;2023-02-13T03:18:28;11.45;;;5.22;;
32329;SDS011;18807;52.434;13.238;2023-02-13T03:26:29;15.18;;;6.28;;
32329;SDS011;18807;52.434;13.238;2023-02-13T03:34:22;14.13;;;6.28;;
32329;SDS011;18807;52.434;13.238;2023-02-13T03:42:20;16.80;;;7.38;;
32329;SDS011;18807;52.434;13.238;2023-02-13T03:50:01;18.23;;;6.05;;
32329;SDS011;18807;52.434;13.238;2023-02-13T03:57:42;14.23;;;6.78;;
32329;SDS011;18807;52.434;13.238;2023-02-13T04:05:36;15.40;;;7.22;;
32329;SDS011;18807;52.434;13.238;2023-02-13T04:13:16;15.95;;;8.13;;
32329;SDS011;18807;52.434;13.238;2023-02-13T04:20:55;21.50;;;7.80;;
32329;SDS011;18807;52.434;13.238;2023-02-13T04:28:31;15.57;;;7.40;;
32329;SDS011;18807;52.434;13.238;2023-02-13T04:36:05;15.43;;;7.25;;
32329;SDS011;18807;52.434;13.238;2023-02-13T04:43:41;16.48;;;7.47;;
32329;SDS011;18807;52.434;13.238;2023-02-13T04:51:15;16.45;;;7.88;;
32329;SDS011;18807;52.434;13.238;2023-02-13T04:58:51;12.83;;;6.63;;
32329;SDS011;18807;52.434;13.238;2023-02-13T05:06:25;14.98;;;7.20;;
32329;SDS011;18807;52.434;13.238;2023-02-13T05:14:00;11.80;;;6.00;;
32329;SDS011;18807;52.434;13.238;2023-02-13T05:21:35;7.13;;;4.13;;
32329;SDS011;18807;52.434;13.238;2023-02-13T05:29:28;9.73;;;4.65;;
32329;SDS011;18807;52.434;13.238;2023-02-13T05:37:02;8.30;;;4.47;;
32329;SDS011;18807;52.434;13.238;2023-02-13T05:44:37;8.20;;;4.17;;
32329;SDS011;18807;52.434;13.238;2023-02-13T05:52:11;6.32;;;4.53;;
32329;SDS011;18807;52.434;13.238;2023-02-13T05:59:47;8.30;;;4.80;;
32329;SDS011;18807;52.434;13.238;2023-02-13T06:07:20;10.45;;;5.25;;
32329;SDS011;18807;52.434;13.238;2023-02-13T06:14:56;9.50;;;4.93;;
32329;SDS011;18807;52.434;13.238;2023-02-13T06:22:30;8.93;;;5.03;;
32329;SDS011;18807;52.434;13.238;2023-02-13T06:30:06;12.07;;;5.90;;
32329;SDS011;18807;52.434;13.238;2023-02-13T06:37:41;10.75;;;5.90;;
32329;SDS011;18807;52.434;13.238;2023-02-13T06:45:17;13.70;;;6.30;;
32329;SDS011;18807;52.434;13.238;2023-02-13T06:52:51;11.27;;;5.95;;
32329;SDS011;18807;52.434;13.238;2023-02-13T07:00:26;11.57;;;6.70;;
32329;SDS011;18807;52.434;13.238;2023-02-13T07:08:00;11.23;;;6.15;;
32329;SDS011;18807;52.434;13.238;2023-02-13T07:15:36;11.20;;;6.13;;
32329;SDS011;18807;52.434;13.238;2023-02-13T07:23:10;15.20;;;6.80;;
32329;SDS011;18807;52.434;13.238;2023-02-13T07:30:45;13.00;;;6.40;;
32329;SDS011;18807;52.434;13.238;2023-02-13T07:38:19;15.35;;;6.38;;
32329;SDS011;18807;52.434;13.238;2023-02-13T07:45:55;14.33;;;7.27;;
32329;SDS011;18807;52.434;13.238;2023-02-13T07:53:31;14.75;;;7.07;;
32329;SDS011;18807;52.434;13.238;2023-02-13T08:01:07;13.00;;;6.07;;
32329;SDS011;18807;52.434;13.238;2023-02-13T08:08:41;12.70;;;6.75;;
32329;SDS011;18807;52.434;13.238;2023-02-13T08:16:16;12.13;;;6.83;;
32329;SDS011;18807;52.434;13.238;2023-02-13T08:23:51;13.85;;;6.25;;
32329;SDS011;18807;52.434;13.238;2023-02-13T08:31:26;15.40;;;6.20;;
32329;SDS011;18807;52.434;13.238;2023-02-13T08:39:00;11.50;;;5.32;;
32329;SDS011;18807;52.434;13.238;2023-02-13T08:46:35;13.80;;;6.53;;
32329;SDS011;18807;52.434;13.238;2023-02-13T08:54:09;10.82;;;5.22;;
32329;SDS011;18807;52.434;13.238;2023-02-13T09:01:45;11.00;;;5.73;;
32329;SDS011;18807;52.434;13.238;2023-02-13T09:09:19;15.48;;;6.93;;
32329;SDS011;18807;52.434;13.238;2023-02-13T09:16:54;18.10;;;6.97;;
32329;SDS011;18807;52.434;13.238;2023-02-13T09:24:29;12.50;;;6.28;;
32329;SDS011;18807;52.434;13.238;2023-02-13T09:32:04;17.93;;;7.87;;
32329;SDS011;18807;52.434;13.238;2023-02-13T09:39:38;19.52;;;7.88;;
32329;SDS011;18807;52.434;13.238;2023-02-13T09:47:15;23.87;;;10.77;;
32329;SDS011;18807;52.434;13.238;2023-02-13T09:54:55;22.48;;;8.48;;
32329;SDS011;18807;52.434;13.238;2023-02-13T10:02:36;17.53;;;7.73;;
32329;SDS011;18807;52.434;13.238;2023-02-13T10:10:33;21.05;;;9.48;;
32329;SDS011;18807;52.434;13.238;2023-02-13T10:18:23;21.17;;;8.57;;
32329;SDS011;18807;52.434;13.238;2023-02-13T10:26:03;24.42;;;8.85;;
32329;SDS011;18807;52.434;13.238;2023-02-13T10:33:42;22.65;;;9.50;;
32329;SDS011;18807;52.434;13.238;2023-02-13T10:41:27;17.15;;;7.45;;
32329;SDS011;18807;52.434;13.238;2023-02-13T10:49:24;17.92;;;7.90;;
32329;SDS011;18807;52.434;13.238;2023-02-13T10:57:08;13.68;;;7.25;;
32329;SDS011;18807;52.434;13.238;2023-02-13T11:04:48;17.02;;;7.07;;
32329;SDS011;18807;52.434;13.238;2023-02-13T11:12:23;20.83;;;9.52;;
32329;SDS011;18807;52.434;13.238;2023-02-13T11:20:02;18.15;;;8.63;;
32329;SDS011;18807;52.434;13.238;2023-02-13T11:27:39;16.98;;;8.48;;
32329;SDS011;18807;52.434;13.238;2023-02-13T11:35:27;16.07;;;7.67;;
32329;SDS011;18807;52.434;13.238;2023-02-13T11:43:02;20.35;;;9.15;;
32329;SDS011;18807;52.434;13.238;2023-02-13T11:50:40;17.25;;;8.65;;
32329;SDS011;18807;52.434;13.238;2023-02-13T11:58:22;15.55;;;8.40;;
32329;SDS011;18807;52.434;13.238;2023-02-13T12:06:01;21.92;;;8.90;;
32329;SDS011;18807;52.434;13.238;2023-02-13T12:13:38;16.42;;;8.95;;
32329;SDS011;18807;52.434;13.238;2023-02-13T12:21:16;14.47;;;8.20;;
32329;SDS011;18807;52.434;13.238;2023-02-13T12:29:04;15.77;;;8.50;;
32329;SDS011;18807;52.434;13.238;2023-02-13T12:36:56;15.45;;;8.48;;
32329;SDS011;18807;52.434;13.238;2023-02-13T12:52:46;20.63;;;9.23;;
32329;SDS011;18807;52.434;13.238;2023-02-13T13:00:34;20.08;;;9.35;;
32329;SDS011;18807;52.434;13.238;2023-02-13T13:08:30;20.55;;;9.88;;
32329;SDS011;18807;52.434;13.238;2023-02-13T13:16:20;20.38;;;11.38;;
32329;SDS011;18807;52.434;13.238;2023-02-13T13:24:02;21.52;;;10.13;;
32329;SDS011;18807;52.434;13.238;2023-02-13T13:31:42;20.17;;;10.35;;
32329;SDS011;18807;52.434;13.238;2023-02-13T13:39:31;20.98;;;11.25;;
32329;SDS011;18807;52.434;13.238;2023-02-13T13:47:15;20.77;;;10.10;;
32329;SDS011;18807;52.434;13.238;2023-02-13T13:55:00;22.02;;;11.55;;
32329;SDS011;18807;52.434;13.238;2023-02-13T14:02:40;20.80;;;11.05;;
32329;SDS011;18807;52.434;13.238;2023-02-13T14:18:44;17.63;;;8.77;;
32329;SDS011;18807;52.434;13.238;2023-02-13T14:26:32;21.08;;;10.07;;
32329;SDS011;18807;52.434;13.238;2023-02-13T14:34:16;17.35;;;8.85;;
32329;SDS011;18807;52.434;13.238;2023-02-13T14:41:57;18.48;;;9.98;;
32329;SDS011;18807;52.434;13.238;2023-02-13T14:49:34;18.10;;;8.85;;
32329;SDS011;18807;52.434;13.238;2023-02-13T14:57:13;15.30;;;8.90;;
32329;SDS011;18807;52.434;13.238;2023-02-13T15:04:54;13.07;;;7.60;;
32329;SDS011;18807;52.434;13.238;2023-02-13T15:12:32;21.77;;;10.85;;
32329;SDS011;18807;52.434;13.238;2023-02-13T15:20:16;18.58;;;9.95;;
32329;SDS011;18807;52.434;13.238;2023-02-13T15:27:56;17.27;;;9.27;;
32329;SDS011;18807;52.434;13.238;2023-02-13T15:35:34;15.10;;;9.13;;
32329;SDS011;18807;52.434;13.238;2023-02-13T15:43:11;20.83;;;9.10;;
32329;SDS011;18807;52.434;13.238;2023-02-13T15:50:56;16.75;;;8.23;;
32329;SDS011;18807;52.434;13.238;2023-02-13T15:58:31;16.65;;;8.27;;
32329;SDS011;18807;52.434;13.238;2023-02-13T16:06:10;14.07;;;7.72;;
32329;SDS011;18807;52.434;13.238;2023-02-13T16:13:56;15.85;;;8.20;;
32329;SDS011;18807;52.434;13.238;2023-02-13T16:21:49;14.40;;;7.35;;
32329;SDS011;18807;52.434;13.238;2023-02-13T16:29:24;21.48;;;10.68;;
32329;SDS011;18807;52.434;13.238;2023-02-13T16:37:01;19.75;;;9.80;;
32329;SDS011;18807;52.434;13.238;2023-02-13T16:44:35;17.75;;;8.20;;
32329;SDS011;18807;52.434;13.238;2023-02-13T16:52:13;16.40;;;8.43;;
32329;SDS011;18807;52.434;13.238;2023-02-13T16:59:55;13.07;;;7.43;;
32329;SDS011;18807;52.434;13.238;2023-02-13T17:07:34;13.07;;;6.85;;
32329;SDS011;18807;52.434;13.238;2023-02-13T17:15:10;21.33;;;9.60;;
32329;SDS011;18807;52.434;13.238;2023-02-13T17:22:49;16.10;;;9.30;;
32329;SDS011;18807;52.434;13.238;2023-02-13T17:30:26;20.00;;;9.55;;
32329;SDS011;18807;52.434;13.238;2023-02-13T17:38:03;18.88;;;9.15;;
32329;SDS011;18807;52.434;13.238;2023-02-13T17:45:37;15.65;;;8.48;;
32329;SDS011;18807;52.434;13.238;2023-02-13T17:53:15;16.88;;;8.85;;
32329;SDS011;18807;52.434;13.238;2023-02-13T18:00:54;15.85;;;8.20;;
32329;SDS011;18807;52.434;13.238;2023-02-13T18:08:29;17.48;;;9.57;;
32329;SDS011;18807;52.434;13.238;2023-02-13T18:16:06;16.45;;;8.48;;
32329;SDS011;18807;52.434;13.238;2023-02-13T18:23:42;17.13;;;9.32;;
32329;SDS011;18807;52.434;13.238;2023-02-13T18:31:16;17.73;;;9.98;;
32329;SDS011;18807;52.434;13.238;2023-02-13T18:38:52;20.58;;;10.20;;
32329;SDS011;18807;52.434;13.238;2023-02-13T18:46:25;18.27;;;9.15;;
32329;SDS011;18807;52.434;13.238;2023-02-13T18:54:01;20.43;;;10.23;;
32329;SDS011;18807;52.434;13.238;2023-02-13T19:01:35;14.07;;;8.38;;
32329;SDS011;18807;52.434;13.238;2023-02-13T19:09:10;17.70;;;9.63;;
32329;SDS011;18807;52.434;13.238;2023-02-13T19:16:44;16.42;;;9.00;;
32329;SDS011;18807;52.434;13.238;2023-02-13T19:24:20;17.48;;;9.35;;
32329;SDS011;18807;52.434;13.238;2023-02-13T19:31:54;15.10;;;8.52;;
32329;SDS011;18807;52.434;13.238;2023-02-13T19:39:29;17.70;;;10.60;;
32329;SDS011;18807;52.434;13.238;2023-02-13T19:47:03;27.50;;;11.30;;
32329;SDS011;18807;52.434;13.238;2023-02-13T19:54:39;25.80;;;13.20;;
32329;SDS011;18807;52.434;13.238;2023-02-13T20:02:13;24.38;;;11.90;;
32329;SDS011;18807;52.434;13.238;2023-02-13T20:09:49;27.05;;;13.55;;
32329;SDS011;18807;52.434;13.238;2023-02-13T20:17:23;23.90;;;12.02;;
32329;SDS011;18807;52.434;13.238;2023-02-13T20:24:59;25.80;;;11.77;;
32329;SDS011;18807;52.434;13.238;2023-02-13T20:32:33;28.60;;;12.77;;
32329;SDS011;18807;52.434;13.238;2023-02-13T20:40:10;26.07;;;11.73;;
32329;SDS011;18807;52.434;13.238;2023-02-13T20:47:44;22.08;;;11.27;;
32329;SDS011;18807;52.434;13.238;2023-02-13T20:55:20;23.27;;;11.80;;
32329;SDS011;18807;52.434;13.238;2023-02-13T21:02:54;28.00;;;12.30;;
32329;SDS011;18807;52.434;13.238;2023-02-13T21:10:29;26.20;;;12.03;;
32329;SDS011;18807;52.434;13.238;2023-02-13T21:18:03;27.73;;;12.30;;
32329;SDS011;18807;52.434;13.238;2023-02-13T21:25:40;26.67;;;12.18;;
32329;SDS011;18807;52.434;13.238;2023-02-13T21:33:14;28.05;;;12.00;;
32329;SDS011;18807;52.434;13.238;2023-02-13T21:40:49;32.10;;;13.52;;
32329;SDS011;18807;52.434;13.238;2023-02-13T21:48:24;31.80;;;12.77;;
32329;SDS011;18807;52.434;13.238;2023-02-13T21:56:00;23.33;;;11.88;;
32329;SDS011;18807;52.434;13.238;2023-02-13T22:03:35;24.90;;;11.55;;
32329;SDS011;18807;52.434;13.238;2023-02-13T22:11:10;24.17;;;11.18;;
32329;SDS011;18807;52.434;13.238;2023-02-13T22:18:44;29.30;;;13.25;;
32329;SDS011;18807;52.434;13.238;2023-02-13T22:26:22;29.63;;;12.50;;
32329;SDS011;18807;52.434;13.238;2023-02-13T22:33:58;29.90;;;13.18;;
32329;SDS011;18807;52.434;13.238;2023-02-13T22:41:37;28.00;;;12.38;;
32329;SDS011;18807;52.434;13.238;2023-02-13T22:49:11;28.35;;;12.73;;
32329;SDS011;18807;52.434;13.238;2023-02-13T22:56:46;29.97;;;12.77;;
32329;SDS011;18807;52.434;13.238;2023-02-13T23:04:20;25.67;;;11.38;;
32329;SDS011;18807;52.434;13.238;2023-02-13T23:11:55;31.63;;;13.20;;
32329;SDS011;18807;52.434;13.238;2023-02-13T23:19:47;27.48;;;13.27;;
32329;SDS011;18807;52.434;13.238;2023-02-13T23:34:57;31.83;;;15.10;;
32329;SDS011;18807;52.434;13.238;2023-02-13T23:42:32;26.10;;;12.40;;
32329;SDS011;18807;52.434;13.238;2023-02-13T23:50:06;28.42;;;12.25;;
32329;SDS011;18807;52.434;13.238;2023-02-13T23:57:42;26.45;;;12.20;;
